Terminal Aerodrome Forecast
Issued by NWS

Home | Current Version | Previous Version | Text Only | Print | Product List | Glossary On
Versions: 1 2 3 4 5 6 7 8 9 10 11 12
000
FTUS45 KGGW 281139
TAFSDY
TAF
KSDY 281139Z 2812/2912 31004KT P6SM SKC
     FM282100 20009KT P6SM BKN110
     FM282300 20009KT P6SM VCSH BKN100
     FM290800 22007KT P6SM SCT140=

USA.gov is the U.S. government's official web portal to all federal, state and local government web resources and services.